Time;durP1;ratioP1;P1;durP2;ratioP2;P2;SDS_P1;SDS_P2;PMS_P1;PMS_P2;Temp;Humidity;BMP_temperature;BMP_pressure;BME280_temperature;BME280_humidity;BME280_pressure;Samples;Min_cycle;Max_cycle;Signal;HPM_P1;HPM_P2
2021/06/25 00:01:17;;;;;;;7.65;6.82;;;13.10;99.90;;;;;;5094636;28;20031;-70
2021/06/25 00:03:42;;;;;;;7.90;7.15;;;13.10;99.90;;;;;;5093606;28;20030;-71
2021/06/25 00:06:08;;;;;;;8.23;7.47;;;13.00;99.90;;;;;;5094544;28;20034;-75
2021/06/25 00:08:33;;;;;;;8.27;7.47;;;13.00;99.90;;;;;;5094208;28;20058;-70
2021/06/25 00:10:59;;;;;;;8.38;7.57;;;13.00;99.90;;;;;;5075216;28;20080;-70
2021/06/25 00:13:25;;;;;;;10.18;8.18;;;12.90;99.90;;;;;;5093928;28;20472;-70
2021/06/25 00:15:50;;;;;;;10.93;8.25;;;12.90;99.90;;;;;;5075808;28;20484;-71
2021/06/25 00:18:16;;;;;;;9.85;8.85;;;12.90;99.90;;;;;;5075150;28;20464;-71
2021/06/25 00:20:41;;;;;;;9.00;7.47;;;12.80;99.90;;;;;;5093894;28;20030;-71
2021/06/25 00:23:07;;;;;;;8.55;7.70;;;12.80;99.90;;;;;;5075851;28;20063;-70
2021/06/25 00:25:33;;;;;;;9.18;8.30;;;12.70;99.90;;;;;;5092888;28;20453;-71
2021/06/25 00:27:59;;;;;;;11.25;8.20;;;12.70;99.90;;;;;;5075759;28;20009;-71
2021/06/25 00:30:24;;;;;;;10.95;9.00;;;12.70;99.90;;;;;;5075846;28;20035;-70
2021/06/25 00:32:50;;;;;;;9.77;8.38;;;12.70;99.90;;;;;;5092806;28;20044;-70
2021/06/25 00:35:16;;;;;;;8.82;7.93;;;12.60;99.90;;;;;;5094010;28;20028;-69
2021/06/25 00:37:43;;;;;;;9.45;8.43;;;12.60;99.90;;;;;;5075270;28;20379;-69
2021/06/25 00:40:10;;;;;;;9.43;8.52;;;12.50;99.90;;;;;;5075213;28;20039;-70
2021/06/25 00:42:36;;;;;;;9.30;8.40;;;12.50;99.90;;;;;;5093291;28;20020;-72
2021/06/25 00:45:14;;;;;;;9.13;8.32;;;12.40;99.90;;;;;;5093342;28;20031;-70
2021/06/25 00:47:52;;;;;;;12.05;8.13;;;12.30;99.90;;;;;;5075231;28;20482;-70
2021/06/25 00:50:21;;;;;;;11.30;8.93;;;12.20;99.90;;;;;;5075572;28;20020;-71
2021/06/25 00:52:53;;;;;;;12.57;8.88;;;12.10;99.90;;;;;;5074194;28;20086;-70
2021/06/25 00:55:19;;;;;;;9.68;8.70;;;12.00;99.90;;;;;;5093299;28;20388;-70
2021/06/25 00:57:45;;;;;;;9.65;8.70;;;12.00;99.90;;;;;;5074898;28;20099;-70
2021/06/25 01:00:11;;;;;;;11.18;9.93;;;11.90;99.90;;;;;;5092624;28;20103;-70
2021/06/25 01:02:37;;;;;;;10.27;9.07;;;11.90;99.90;;;;;;5093055;28;20561;-70
2021/06/25 01:05:05;;;;;;;10.82;9.73;;;11.80;99.90;;;;;;5092982;28;20063;-72
2021/06/25 01:07:32;;;;;;;10.77;9.63;;;11.70;99.90;;;;;;5092433;28;20020;-70
2021/06/25 01:09:59;;;;;;;10.35;9.45;;;11.70;99.90;;;;;;5074782;28;20383;-70
2021/06/25 01:12:26;;;;;;;11.05;9.98;;;11.70;99.90;;;;;;5075094;28;20024;-71
2021/06/25 01:14:52;;;;;;;10.68;9.73;;;11.60;99.90;;;;;;5091764;28;20090;-70
2021/06/25 01:17:31;;;;;;;10.32;9.32;;;11.60;99.90;;;;;;5093310;28;20032;-71
2021/06/25 01:19:58;;;;;;;10.77;9.30;;;11.50;99.90;;;;;;5092864;28;20081;-71
2021/06/25 01:22:34;;;;;;;11.18;9.30;;;11.40;99.90;;;;;;5092552;28;20031;-71
2021/06/25 01:25:09;;;;;;;11.13;9.98;;;11.40;99.90;;;;;;5092382;28;20043;-70
2021/06/25 01:27:37;;;;;;;11.02;9.70;;;11.40;99.90;;;;;;5073885;28;20031;-70
2021/06/25 01:30:05;;;;;;;11.35;10.00;;;11.30;99.90;;;;;;5074563;28;20028;-70
2021/06/25 01:32:31;;;;;;;10.98;9.88;;;11.20;99.90;;;;;;5092484;28;20077;-71
2021/06/25 01:35:00;;;;;;;10.77;9.73;;;11.20;99.90;;;;;;5073543;28;20027;-71
2021/06/25 01:37:26;;;;;;;10.75;9.75;;;11.10;99.90;;;;;;5092811;28;20429;-71
2021/06/25 01:39:51;;;;;;;10.65;9.55;;;11.10;99.90;;;;;;5074206;28;20047;-71
2021/06/25 01:42:17;;;;;;;10.63;9.73;;;11.00;99.90;;;;;;5073837;28;20059;-70
2021/06/25 01:44:45;;;;;;;11.18;10.10;;;10.90;99.90;;;;;;5092144;28;20052;-72
2021/06/25 01:47:11;;;;;;;10.68;9.50;;;10.90;99.90;;;;;;5092532;28;20493;-70
2021/06/25 01:49:37;;;;;;;11.43;10.32;;;10.90;99.90;;;;;;5091648;28;20028;-70
2021/06/25 01:52:04;;;;;;;12.30;11.05;;;10.80;99.90;;;;;;5092261;28;20106;-70
2021/06/25 01:54:29;;;;;;;12.07;10.88;;;10.90;99.90;;;;;;5092212;28;20036;-70
2021/06/25 01:56:55;;;;;;;12.40;11.18;;;10.90;99.90;;;;;;5091493;28;20065;-70
2021/06/25 01:59:22;;;;;;;11.75;10.55;;;10.90;99.90;;;;;;5074487;28;20020;-70
2021/06/25 02:01:48;;;;;;;14.00;11.52;;;10.90;99.90;;;;;;5092323;28;20016;-70
2021/06/25 02:04:14;;;;;;;12.70;11.40;;;10.90;99.90;;;;;;5091554;28;20024;-73
2021/06/25 02:06:40;;;;;;;12.45;11.32;;;10.90;99.90;;;;;;5092006;28;20028;-70
2021/06/25 02:09:05;;;;;;;12.32;11.23;;;10.80;99.90;;;;;;5092236;28;20035;-69
2021/06/25 02:11:31;;;;;;;13.10;11.90;;;10.80;99.90;;;;;;5090903;28;20020;-70
2021/06/25 02:13:56;;;;;;;13.65;11.95;;;10.80;99.90;;;;;;5072251;28;20044;-70
2021/06/25 02:16:22;;;;;;;12.60;10.93;;;10.80;99.90;;;;;;5072164;28;20127;-70
2021/06/25 02:18:47;;;;;;;12.73;11.55;;;10.80;99.90;;;;;;5069787;28;20024;-70
2021/06/25 02:21:13;;;;;;;12.98;11.68;;;10.80;99.90;;;;;;5056929;28;20067;-69
2021/06/25 02:23:40;;;;;;;15.27;12.55;;;10.80;99.90;;;;;;5072067;28;20024;-69
2021/06/25 02:26:05;;;;;;;14.52;12.15;;;10.80;99.90;;;;;;5092104;28;20016;-71
2021/06/25 02:28:31;;;;;;;12.35;11.27;;;10.80;99.90;;;;;;5091846;28;20089;-70
2021/06/25 02:30:57;;;;;;;12.57;11.45;;;10.60;99.90;;;;;;5073596;28;20056;-70
2021/06/25 02:33:24;;;;;;;19.65;12.35;;;10.60;99.90;;;;;;5053873;28;20389;-80
2021/06/25 02:35:50;;;;;;;14.27;12.98;;;10.50;99.90;;;;;;5073322;28;20543;-71
2021/06/25 02:38:15;;;;;;;13.05;11.48;;;10.40;99.90;;;;;;5057203;28;20040;-72
2021/06/25 02:40:42;;;;;;;14.35;13.13;;;10.40;99.90;;;;;;5057837;28;20426;-70
2021/06/25 02:43:07;;;;;;;13.32;12.13;;;10.30;99.90;;;;;;5093400;28;20024;-71
2021/06/25 02:45:33;;;;;;;14.57;13.18;;;10.20;99.90;;;;;;5095218;28;20031;-69
2021/06/25 02:47:59;;;;;;;14.75;13.02;;;10.20;99.90;;;;;;5095800;28;20062;-70
2021/06/25 02:50:24;;;;;;;13.75;12.50;;;10.20;99.90;;;;;;5096008;28;20027;-70
2021/06/25 02:52:50;;;;;;;14.00;12.68;;;10.10;99.90;;;;;;5111278;28;20039;-70
2021/06/25 02:55:16;;;;;;;14.63;12.93;;;10.00;99.90;;;;;;5115999;28;20042;-69
2021/06/25 02:57:42;;;;;;;14.70;13.27;;;10.00;99.90;;;;;;5097446;28;20024;-70
2021/06/25 03:00:12;;;;;;;14.20;13.00;;;9.90;99.90;;;;;;5096875;28;20020;-69
2021/06/25 03:02:37;;;;;;;13.77;12.35;;;9.90;99.90;;;;;;5097476;28;20046;-70
2021/06/25 03:05:05;;;;;;;14.93;13.40;;;9.80;99.90;;;;;;5115823;28;20063;-71
2021/06/25 03:07:30;;;;;;;15.48;14.05;;;9.80;99.90;;;;;;5115005;28;20023;-70
2021/06/25 03:09:56;;;;;;;15.57;14.18;;;9.70;99.90;;;;;;5115732;28;20020;-72
2021/06/25 03:12:21;;;;;;;15.07;13.43;;;9.70;99.90;;;;;;5116295;28;20448;-70
2021/06/25 03:14:47;;;;;;;16.23;14.63;;;9.70;99.90;;;;;;5114569;28;20087;-71
2021/06/25 03:17:12;;;;;;;14.85;13.45;;;9.60;99.90;;;;;;5115744;28;20085;-71
2021/06/25 03:19:38;;;;;;;15.60;13.63;;;9.60;99.90;;;;;;5097214;28;20023;-72
2021/06/25 03:22:05;;;;;;;15.55;14.05;;;9.50;99.90;;;;;;5115039;28;20024;-71
2021/06/25 03:24:30;;;;;;;15.73;14.18;;;9.60;99.90;;;;;;5115181;28;20094;-70
2021/06/25 03:26:56;;;;;;;15.77;14.15;;;9.60;99.90;;;;;;5115019;28;20119;-72
2021/06/25 03:29:22;;;;;;;15.57;14.10;;;9.60;99.90;;;;;;5097447;28;20031;-71
2021/06/25 03:31:47;;;;;;;15.75;14.25;;;9.60;99.90;;;;;;5115168;28;20024;-71
2021/06/25 03:34:13;;;;;;;16.10;14.50;;;9.60;99.90;;;;;;5114674;28;20036;-70
2021/06/25 03:36:38;;;;;;;16.05;14.45;;;9.70;99.90;;;;;;5096979;28;20046;-70
2021/06/25 03:39:05;;;;;;;15.70;14.20;;;9.70;99.90;;;;;;5115184;28;20081;-74
2021/06/25 03:41:31;;;;;;;16.42;14.70;;;9.70;99.90;;;;;;5114434;28;20052;-72
2021/06/25 03:43:56;;;;;;;16.08;14.48;;;9.80;99.90;;;;;;5115031;28;20424;-70
2021/06/25 03:46:23;;;;;;;17.63;15.73;;;9.80;99.90;;;;;;5096662;28;20379;-70
2021/06/25 03:48:49;;;;;;;15.90;14.38;;;9.90;99.90;;;;;;5114186;28;20898;-70
2021/06/25 03:51:15;;;;;;;17.23;15.63;;;10.00;99.90;;;;;;5115187;28;20016;-70
2021/06/25 03:53:40;;;;;;;16.35;14.70;;;10.10;99.90;;;;;;5096335;28;20030;-69
2021/06/25 03:56:09;;;;;;;18.30;16.50;;;10.20;99.90;;;;;;5114185;28;20938;-70
2021/06/25 03:58:35;;;;;;;17.75;16.13;;;10.30;99.90;;;;;;5114710;28;20015;-69
2021/06/25 04:01:00;;;;;;;18.63;16.75;;;10.40;99.90;;;;;;5114878;28;20023;-70
2021/06/25 04:03:26;;;;;;;19.35;17.35;;;10.50;99.90;;;;;;5096068;28;20479;-70
2021/06/25 04:05:52;;;;;;;16.77;15.10;;;10.60;99.90;;;;;;5114571;28;20483;-71
2021/06/25 04:08:18;;;;;;;17.60;15.90;;;10.80;99.90;;;;;;5096561;28;20030;-71
2021/06/25 04:10:44;;;;;;;18.45;16.65;;;10.90;99.90;;;;;;5113691;28;20020;-70
2021/06/25 04:13:10;;;;;;;17.42;15.73;;;11.00;99.90;;;;;;5114682;28;20016;-70
2021/06/25 04:15:35;;;;;;;16.35;14.88;;;11.10;99.90;;;;;;5114258;28;20368;-71
2021/06/25 04:18:01;;;;;;;17.33;15.73;;;11.30;99.90;;;;;;5113850;28;20043;-71
2021/06/25 04:20:27;;;;;;;17.30;15.68;;;11.50;99.90;;;;;;5114681;28;20120;-69
2021/06/25 04:22:53;;;;;;;17.70;15.90;;;11.70;99.90;;;;;;5095808;28;20475;-72
2021/06/25 04:25:19;;;;;;;17.60;15.90;;;11.80;99.90;;;;;;5095789;28;20196;-69
2021/06/25 04:27:44;;;;;;;18.20;16.27;;;12.00;99.90;;;;;;5114121;28;20116;-69
2021/06/25 04:30:12;;;;;;;20.35;18.45;;;12.30;99.90;;;;;;5114653;28;20028;-70
2021/06/25 04:32:39;;;;;;;21.33;19.20;;;12.40;99.90;;;;;;5095430;28;20034;-68
2021/06/25 04:35:05;;;;;;;21.27;19.08;;;12.70;99.90;;;;;;5114149;28;20028;-68
2021/06/25 04:37:30;;;;;;;21.95;19.85;;;12.90;99.90;;;;;;5073802;28;20044;-69
2021/06/25 04:39:56;;;;;;;23.00;20.88;;;13.10;99.90;;;;;;5093647;28;20451;-69
2021/06/25 04:42:21;;;;;;;23.33;21.08;;;13.30;99.90;;;;;;5093735;28;20058;-69
2021/06/25 04:44:47;;;;;;;22.95;20.70;;;13.60;99.90;;;;;;5092624;28;20073;-69
2021/06/25 04:47:13;;;;;;;23.85;21.52;;;13.70;99.90;;;;;;5113423;28;20059;-69
2021/06/25 04:49:39;;;;;;;23.05;20.73;;;13.90;99.90;;;;;;5113738;28;20016;-69
2021/06/25 04:52:06;;;;;;;23.55;21.25;;;14.00;99.90;;;;;;5094688;28;20016;-69
2021/06/25 04:54:33;;;;;;;25.08;22.60;;;14.10;99.90;;;;;;5107283;28;20036;-69
2021/06/25 04:56:59;;;;;;;22.50;20.27;;;14.20;99.90;;;;;;5075116;28;20054;-69
2021/06/25 04:59:25;;;;;;;23.90;21.73;;;14.30;99.90;;;;;;5088068;28;20015;-68
2021/06/25 05:01:50;;;;;;;22.92;20.63;;;14.40;99.90;;;;;;5113475;28;20020;-70
2021/06/25 05:04:16;;;;;;;25.63;22.88;;;14.50;99.90;;;;;;5113592;28;20055;-70
2021/06/25 05:06:41;;;;;;;23.70;21.35;;;14.60;99.90;;;;;;5094503;28;20472;-70
2021/06/25 05:09:08;;;;;;;25.95;23.25;;;14.70;99.90;;;;;;5113574;28;20487;-70
2021/06/25 05:11:33;;;;;;;24.08;21.77;;;14.70;99.90;;;;;;5113221;28;20038;-69
2021/06/25 05:13:59;;;;;;;25.00;22.60;;;14.70;99.90;;;;;;5094043;28;20039;-70
2021/06/25 05:16:24;;;;;;;25.70;23.00;;;14.70;99.90;;;;;;5113450;28;20133;-69
2021/06/25 05:18:50;;;;;;;25.77;23.08;;;14.70;99.90;;;;;;5113135;28;20479;-69
2021/06/25 05:21:16;;;;;;;23.27;20.88;;;14.70;99.90;;;;;;5112788;28;20020;-72
2021/06/25 05:23:41;;;;;;;24.02;21.13;;;14.70;99.90;;;;;;5112986;28;20019;-71
2021/06/25 05:26:07;;;;;;;24.70;22.17;;;14.60;99.90;;;;;;5095233;28;20084;-69
2021/06/25 05:28:32;;;;;;;23.63;21.27;;;14.70;99.90;;;;;;5087793;28;20519;-69
2021/06/25 05:30:58;;;;;;;23.10;20.70;;;14.70;99.90;;;;;;5090254;28;20376;-70
2021/06/25 05:33:23;;;;;;;21.98;19.65;;;14.80;99.90;;;;;;5072457;28;20017;-72
2021/06/25 05:35:49;;;;;;;22.40;20.20;;;14.90;99.90;;;;;;5053673;28;20048;-69
2021/06/25 05:38:16;;;;;;;23.27;20.98;;;15.10;99.90;;;;;;5054670;28;20484;-69
2021/06/25 05:40:43;;;;;;;22.15;19.95;;;15.30;99.90;;;;;;5053574;28;20025;-69
2021/06/25 05:43:09;;;;;;;20.15;18.05;;;15.40;99.90;;;;;;5072326;28;20085;-69
2021/06/25 05:45:36;;;;;;;20.58;17.17;;;15.60;99.90;;;;;;5073321;28;20027;-70
2021/06/25 05:48:02;;;;;;;19.17;17.38;;;15.70;99.90;;;;;;5091866;28;20021;-70
2021/06/25 05:50:28;;;;;;;18.88;16.98;;;15.70;99.90;;;;;;5074539;28;20085;-70
2021/06/25 05:52:54;;;;;;;18.55;16.65;;;15.80;99.90;;;;;;5092108;28;20468;-76
2021/06/25 05:55:19;;;;;;;17.92;15.82;;;15.90;99.90;;;;;;5073646;28;20076;-71
2021/06/25 05:57:47;;;;;;;19.02;16.60;;;16.00;99.90;;;;;;5074068;28;20066;-70
2021/06/25 06:00:14;;;;;;;17.48;15.55;;;16.00;99.90;;;;;;5092031;28;20036;-71
2021/06/25 06:02:40;;;;;;;18.00;16.17;;;16.20;99.90;;;;;;5090869;28;20107;-69
2021/06/25 06:05:07;;;;;;;16.92;15.32;;;16.20;99.90;;;;;;5091946;28;20104;-75
2021/06/25 06:07:33;;;;;;;16.60;14.73;;;16.30;99.90;;;;;;5074171;28;20505;-69
2021/06/25 06:09:58;;;;;;;16.10;14.60;;;16.50;99.90;;;;;;5069734;28;20020;-72
2021/06/25 06:12:24;;;;;;;16.10;14.50;;;16.60;99.90;;;;;;5070130;28;20069;-70
2021/06/25 06:14:50;;;;;;;16.25;14.60;;;16.80;99.90;;;;;;5091170;28;20082;-71
2021/06/25 06:17:18;;;;;;;16.40;14.70;;;17.00;99.90;;;;;;5091369;28;20500;-69
2021/06/25 06:19:46;;;;;;;16.38;14.73;;;17.20;99.90;;;;;;5090712;28;20020;-70
2021/06/25 06:33:22;;;;;;;14.73;13.23;;;17.40;99.90;;;;;;5072169;28;20047;-69
2021/06/25 06:35:49;;;;;;;14.50;12.82;;;17.30;99.90;;;;;;5087024;28;20037;-70
2021/06/25 06:38:15;;;;;;;14.60;12.85;;;17.30;99.90;;;;;;5090977;28;20115;-70
2021/06/25 06:40:41;;;;;;;14.65;13.20;;;17.30;99.90;;;;;;5091422;28;20103;-72
2021/06/25 06:43:06;;;;;;;14.32;12.90;;;17.30;99.90;;;;;;5090919;28;20024;-72
2021/06/25 06:45:32;;;;;;;14.30;12.93;;;17.20;99.90;;;;;;5090610;28;20021;-70
2021/06/25 06:47:58;;;;;;;13.15;11.95;;;17.30;99.90;;;;;;5091358;28;20024;-70
2021/06/25 06:50:23;;;;;;;14.02;12.65;;;17.30;99.90;;;;;;5091423;28;20020;-70
2021/06/25 06:52:50;;;;;;;13.57;12.25;;;17.40;99.90;;;;;;5072154;28;20791;-73
2021/06/25 06:55:22;;;;;;;13.20;11.93;;;17.50;99.90;;;;;;5091389;28;20039;-70
2021/06/25 06:57:48;;;;;;;13.35;12.05;;;17.50;99.90;;;;;;5090954;28;20078;-70
2021/06/25 07:00:15;;;;;;;14.80;13.02;;;17.60;99.90;;;;;;5091023;28;20075;-70
2021/06/25 07:02:42;;;;;;;15.98;13.65;;;17.50;99.90;;;;;;5091332;28;20492;-68
2021/06/25 07:05:13;;;;;;;16.27;13.85;;;17.50;99.90;;;;;;5072498;28;20028;-71
2021/06/25 07:07:39;;;;;;;15.85;13.52;;;17.50;99.90;;;;;;5060225;28;20028;-69
2021/06/25 07:10:06;;;;;;;16.23;13.63;;;17.40;99.90;;;;;;5071381;28;20565;-69
2021/06/25 07:12:32;;;;;;;17.50;14.18;;;17.50;99.90;;;;;;5070679;28;20029;-71
2021/06/25 07:14:58;;;;;;;16.10;14.15;;;17.60;99.90;;;;;;5073279;28;20086;-72
2021/06/25 07:17:23;;;;;;;16.02;14.43;;;17.80;99.90;;;;;;5073023;28;20430;-71
2021/06/25 07:19:50;;;;;;;19.02;15.93;;;18.20;99.90;;;;;;5072121;28;20020;-73
2021/06/25 07:22:16;;;;;;;17.05;13.80;;;18.50;99.90;;;;;;5093371;28;20466;-72
2021/06/25 07:24:42;;;;;;;20.95;14.57;;;18.70;99.90;;;;;;5076378;28;20111;-74
2021/06/25 07:27:07;;;;;;;16.38;14.60;;;18.80;99.90;;;;;;5093829;28;20533;-71
2021/06/25 07:29:33;;;;;;;14.73;13.13;;;18.90;99.90;;;;;;5094899;28;20032;-70
2021/06/25 07:31:59;;;;;;;16.48;14.85;;;19.00;99.90;;;;;;5094668;28;20782;-69
2021/06/25 07:34:25;;;;;;;17.35;15.52;;;19.10;99.90;;;;;;5075959;28;20106;-69
2021/06/25 07:36:50;;;;;;;15.50;13.85;;;19.20;99.90;;;;;;5094652;28;20053;-79
2021/06/25 07:39:16;;;;;;;16.23;14.35;;;19.50;99.90;;;;;;5094980;28;20051;-70
2021/06/25 07:41:42;;;;;;;16.50;14.82;;;19.90;99.90;;;;;;5093482;28;20380;-70
2021/06/25 07:44:08;;;;;;;16.30;14.52;;;20.30;99.40;;;;;;5076812;28;20455;-78
2021/06/25 07:46:34;;;;;;;15.13;13.65;;;20.70;98.90;;;;;;5072149;28;20024;-73
2021/06/25 07:49:00;;;;;;;17.52;15.82;;;21.00;97.60;;;;;;5080238;28;20039;-74
2021/06/25 07:51:25;;;;;;;16.85;15.10;;;21.10;96.80;;;;;;5091141;28;20021;-72
2021/06/25 07:53:52;;;;;;;18.30;14.70;;;21.20;96.80;;;;;;5092911;28;20492;-71
2021/06/25 07:56:18;;;;;;;16.83;14.90;;;21.30;97.20;;;;;;5111812;28;20084;-70
2021/06/25 07:58:44;;;;;;;16.75;15.02;;;21.10;97.60;;;;;;5096443;28;20485;-70
2021/06/25 08:01:09;;;;;;;18.35;16.50;;;21.00;97.90;;;;;;5096583;28;20371;-69
2021/06/25 08:03:35;;;;;;;19.38;16.92;;;20.70;98.30;;;;;;5078758;28;20384;-70
2021/06/25 08:06:02;;;;;;;18.77;16.52;;;20.40;98.70;;;;;;5075591;28;20047;-69
2021/06/25 08:08:27;;;;;;;21.83;17.58;;;20.20;99.40;;;;;;5075053;28;20024;-72
2021/06/25 08:10:53;;;;;;;19.98;17.88;;;20.00;99.90;;;;;;5093444;28;20051;-69
2021/06/25 08:13:19;;;;;;;19.25;17.27;;;19.90;99.90;;;;;;5094112;28;20031;-69
2021/06/25 08:15:49;;;;;;;19.27;17.15;;;19.90;99.70;;;;;;5093101;28;20128;-69
2021/06/25 08:18:15;;;;;;;21.02;18.83;;;19.90;99.90;;;;;;5093587;28;20016;-72
2021/06/25 08:20:42;;;;;;;20.60;18.23;;;19.80;99.90;;;;;;5093643;28;20547;-70
2021/06/25 08:23:07;;;;;;;19.45;17.38;;;19.70;99.90;;;;;;5092865;28;20488;-70
2021/06/25 08:25:33;;;;;;;21.58;18.92;;;19.60;99.90;;;;;;5093758;28;20028;-71
2021/06/25 08:27:58;;;;;;;21.80;19.35;;;19.60;99.90;;;;;;5093796;28;20055;-72
2021/06/25 08:30:25;;;;;;;23.52;21.02;;;19.40;99.90;;;;;;5074811;28;20055;-69
2021/06/25 08:32:52;;;;;;;25.52;22.98;;;19.30;99.90;;;;;;5093535;28;20464;-72
2021/06/25 08:35:18;;;;;;;27.90;23.17;;;19.30;99.90;;;;;;5075108;28;20418;-80
2021/06/25 08:37:43;;;;;;;24.75;22.25;;;19.20;99.90;;;;;;5074608;28;20065;-71
2021/06/25 08:40:09;;;;;;;30.08;22.77;;;19.10;99.90;;;;;;5093103;28;20027;-70
2021/06/25 08:42:37;;;;;;;26.80;22.88;;;19.10;99.90;;;;;;5091745;28;20046;-73
2021/06/25 08:45:05;;;;;;;26.85;24.05;;;19.00;99.90;;;;;;5093088;28;20476;-75
2021/06/25 08:47:36;;;;;;;25.15;22.20;;;18.90;99.90;;;;;;5074535;28;20020;-72
2021/06/25 08:50:02;;;;;;;28.52;22.85;;;18.80;99.90;;;;;;5075053;28;20032;-69
2021/06/25 08:52:28;;;;;;;24.77;22.20;;;18.90;99.90;;;;;;5091845;28;20058;-70
2021/06/25 08:54:54;;;;;;;25.55;22.73;;;19.10;99.90;;;;;;5074213;28;20068;-70
2021/06/25 08:57:19;;;;;;;27.67;24.05;;;19.30;99.90;;;;;;5092666;28;20031;-69
2021/06/25 08:59:45;;;;;;;24.77;22.17;;;19.40;99.90;;;;;;5091445;28;20015;-72
2021/06/25 09:02:13;;;;;;;24.67;22.02;;;19.60;99.90;;;;;;5091960;28;20024;-71
2021/06/25 09:04:41;;;;;;;27.20;23.45;;;19.60;99.90;;;;;;5091538;28;20031;-70
2021/06/25 09:07:08;;;;;;;24.92;22.38;;;19.70;99.90;;;;;;5068988;28;20016;-69
2021/06/25 09:09:45;;;;;;;25.58;22.42;;;19.70;99.90;;;;;;5092351;28;20088;-69
2021/06/25 09:12:23;;;;;;;25.25;22.48;;;19.70;99.90;;;;;;5092734;28;20046;-69
2021/06/25 09:15:13;;;;;;;23.75;21.23;;;19.80;99.90;;;;;;5091307;28;20087;-70
2021/06/25 09:18:02;;;;;;;24.73;22.15;;;19.70;99.90;;;;;;5074765;28;20438;-69
2021/06/25 09:20:30;;;;;;;23.77;21.23;;;19.80;99.90;;;;;;5092637;28;20020;-69
2021/06/25 09:22:55;;;;;;;24.75;22.23;;;19.90;99.90;;;;;;5092869;28;20016;-73
2021/06/25 09:25:21;;;;;;;27.85;23.42;;;19.80;99.90;;;;;;5093116;28;20107;-70
2021/06/25 09:27:56;;;;;;;25.63;22.80;;;19.80;99.90;;;;;;5091942;28;20426;-71
2021/06/25 09:30:22;;;;;;;23.63;21.23;;;19.80;99.90;;;;;;5074936;28;20467;-69
2021/06/25 09:32:49;;;;;;;25.35;21.33;;;19.90;99.90;;;;;;5092072;28;20128;-70
2021/06/25 09:35:15;;;;;;;23.77;21.23;;;20.10;99.90;;;;;;5074697;28;20460;-70
2021/06/25 09:37:43;;;;;;;24.95;22.45;;;20.20;99.90;;;;;;5092498;28;20077;-69
2021/06/25 09:40:10;;;;;;;23.80;21.25;;;20.40;99.90;;;;;;5092162;28;20036;-70
2021/06/25 09:42:35;;;;;;;24.33;20.27;;;20.70;99.90;;;;;;5073948;28;20505;-69
2021/06/25 09:45:08;;;;;;;22.77;20.20;;;21.00;99.90;;;;;;5073765;28;20122;-71
2021/06/25 09:47:36;;;;;;;20.55;18.35;;;21.50;99.90;;;;;;5091765;28;20070;-71
2021/06/25 09:50:14;;;;;;;22.15;19.73;;;21.80;99.40;;;;;;5092538;28;20111;-69
2021/06/25 09:52:51;;;;;;;20.95;18.75;;;22.20;98.20;;;;;;5092388;28;20026;-70
2021/06/25 09:55:21;;;;;;;22.48;19.95;;;22.30;97.50;;;;;;5091741;28;20387;-70
2021/06/25 10:03:57;;;;;;;26.30;19.30;;;22.20;97.20;;;;;;5022444;28;20410;-70
2021/06/25 10:06:24;;;;;;;19.70;17.60;;;22.30;97.20;;;;;;5078334;28;20044;-71
2021/06/25 10:08:51;;;;;;;19.52;17.50;;;22.40;97.10;;;;;;5072608;28;20050;-71
2021/06/25 10:11:25;;;;;;;20.25;18.15;;;22.30;97.10;;;;;;5073603;28;20052;-73
2021/06/25 10:13:52;;;;;;;19.02;17.00;;;22.20;97.70;;;;;;5053448;28;20096;-70
2021/06/25 10:16:19;;;;;;;20.80;18.60;;;22.20;97.70;;;;;;5065807;28;20110;-80
2021/06/25 10:18:50;;;;;;;21.98;17.98;;;22.20;96.90;;;;;;5082453;28;20066;-72
2021/06/25 10:21:25;;;;;;;18.95;16.83;;;22.30;96.80;;;;;;5078684;28;20552;-74
2021/06/25 10:23:56;;;;;;;20.35;16.83;;;22.50;95.80;;;;;;5091148;28;20411;-72
2021/06/25 10:26:23;;;;;;;18.85;16.85;;;22.60;95.80;;;;;;5073715;28;20107;-72
2021/06/25 10:28:52;;;;;;;21.30;17.23;;;22.60;96.30;;;;;;5072918;28;20035;-73
2021/06/25 10:31:23;;;;;;;23.60;19.20;;;22.50;95.60;;;;;;5091094;28;20031;-84
2021/06/25 10:33:54;;;;;;;20.80;18.55;;;22.30;95.70;;;;;;5073234;28;20024;-80
2021/06/25 10:36:31;;;;;;;20.35;17.63;;;22.00;95.70;;;;;;5073384;28;20036;-73
2021/06/25 10:39:06;;;;;;;20.75;18.55;;;21.70;96.20;;;;;;5074078;28;20375;-74
2021/06/25 10:41:46;;;;;;;22.02;19.83;;;21.40;96.30;;;;;;5073910;28;20523;-73
2021/06/25 10:44:33;;;;;;;19.95;17.83;;;21.00;96.90;;;;;;5090174;28;20020;-84
2021/06/25 10:47:28;;;;;;;22.92;20.27;;;20.70;97.80;;;;;;5071932;28;20028;-77
2021/06/25 10:50:00;;;;;;;22.90;20.42;;;20.40;97.90;;;;;;5091115;28;20032;-73
2021/06/25 10:52:40;;;;;;;23.90;21.35;;;20.30;98.30;;;;;;5073105;28;20025;-73
2021/06/25 10:55:17;;;;;;;23.80;20.02;;;20.50;97.90;;;;;;5091499;28;20499;-71
2021/06/25 10:57:49;;;;;;;20.40;18.38;;;20.70;97.70;;;;;;5093485;28;20031;-70
2021/06/25 11:00:38;;;;;;;22.45;19.35;;;21.20;97.40;;;;;;5066273;28;20473;-70
2021/06/25 11:03:06;;;;;;;21.40;18.05;;;21.60;97.10;;;;;;5074910;28;20032;-70
2021/06/25 11:05:35;;;;;;;19.70;17.60;;;22.00;96.70;;;;;;5082738;28;20024;-70
2021/06/25 11:08:16;;;;;;;21.02;18.65;;;22.40;96.10;;;;;;5095249;28;20020;-68
2021/06/25 11:10:59;;;;;;;22.20;18.55;;;22.60;95.70;;;;;;5076816;28;20403;-72
2021/06/25 11:13:29;;;;;;;21.42;18.35;;;22.80;95.10;;;;;;5077928;28;20064;-70
2021/06/25 11:16:00;;;;;;;21.38;17.60;;;22.90;95.30;;;;;;5094556;28;20491;-70
2021/06/25 11:18:30;;;;;;;23.10;17.27;;;23.10;94.90;;;;;;5093633;28;20023;-81
2021/06/25 11:21:02;;;;;;;19.90;17.98;;;23.10;94.70;;;;;;5095130;28;20115;-74
2021/06/25 11:23:37;;;;;;;21.15;19.00;;;23.20;94.40;;;;;;5095052;28;20029;-77
2021/06/25 11:26:05;;;;;;;19.75;17.75;;;23.30;93.30;;;;;;5094406;28;20016;-69
2021/06/25 11:28:30;;;;;;;21.92;19.25;;;23.30;93.20;;;;;;5076799;28;20034;-75
2021/06/25 11:31:14;;;;;;;21.60;19.15;;;23.30;93.20;;;;;;5076593;28;20375;-79
2021/06/25 11:33:56;;;;;;;21.00;17.95;;;23.40;93.20;;;;;;5075363;28;20025;-70
2021/06/25 11:36:25;;;;;;;20.27;18.27;;;23.50;93.00;;;;;;5095116;28;20028;-74
2021/06/25 11:38:54;;;;;;;20.50;18.40;;;23.60;93.30;;;;;;5094622;28;20031;-73
2021/06/25 11:41:20;;;;;;;32.20;19.60;;;23.60;92.90;;;;;;5094236;28;20500;-70
2021/06/25 11:43:49;;;;;;;20.58;17.25;;;23.70;92.50;;;;;;5076008;28;20048;-72
2021/06/25 11:46:19;;;;;;;19.88;17.15;;;23.90;93.10;;;;;;5076655;28;20028;-71
2021/06/25 11:48:46;;;;;;;18.02;16.30;;;24.20;93.10;;;;;;5093169;28;20036;-70
2021/06/25 11:51:13;;;;;;;19.55;17.55;;;24.40;93.00;;;;;;5094317;28;20063;-71
2021/06/25 11:53:43;;;;;;;19.02;17.13;;;24.50;92.20;;;;;;5093567;28;20881;-71
2021/06/25 11:56:20;;;;;;;20.42;18.40;;;24.40;91.90;;;;;;5076117;28;20046;-79
2021/06/25 11:58:55;;;;;;;20.52;17.25;;;24.50;92.10;;;;;;5075751;28;20028;-69
2021/06/25 12:01:21;;;;;;;19.85;17.75;;;24.60;92.20;;;;;;5076139;28;20027;-70
2021/06/25 12:03:46;;;;;;;20.08;17.85;;;24.50;92.40;;;;;;5093935;28;20020;-73
2021/06/25 12:06:12;;;;;;;19.60;17.48;;;24.50;92.10;;;;;;5093893;28;20063;-74
2021/06/25 12:08:56;;;;;;;20.30;18.15;;;24.60;91.70;;;;;;5074548;28;20051;-72
2021/06/25 12:11:23;;;;;;;18.13;16.27;;;24.80;91.70;;;;;;5077444;28;20073;-72
2021/06/25 12:14:00;;;;;;;19.48;17.52;;;25.00;92.00;;;;;;5093248;28;20118;-68
2021/06/25 12:16:26;;;;;;;22.20;20.08;;;25.10;90.80;;;;;;5074956;28;20031;-69
2021/06/25 12:18:52;;;;;;;19.98;16.80;;;25.10;90.50;;;;;;5093150;28;20020;-69
2021/06/25 12:21:19;;;;;;;23.38;18.50;;;24.90;90.90;;;;;;5094266;28;20017;-70
2021/06/25 12:23:50;;;;;;;19.70;16.95;;;24.90;90.30;;;;;;5093155;28;20372;-71
2021/06/25 12:26:19;;;;;;;18.00;16.17;;;24.70;90.70;;;;;;5076042;28;20426;-69
2021/06/25 12:28:50;;;;;;;16.65;14.95;;;24.60;91.00;;;;;;5093130;28;20040;-69
2021/06/25 12:31:21;;;;;;;16.88;15.10;;;24.50;90.80;;;;;;5094073;28;20085;-69
2021/06/25 12:33:49;;;;;;;16.80;15.02;;;24.40;90.50;;;;;;5075415;28;20349;-69
2021/06/25 12:36:15;;;;;;;15.82;13.73;;;24.20;90.60;;;;;;5093297;28;20035;-69
2021/06/25 12:38:42;;;;;;;16.58;13.38;;;24.20;90.40;;;;;;5075428;28;20111;-70
2021/06/25 12:41:10;;;;;;;12.98;11.65;;;24.00;90.70;;;;;;5093816;28;20046;-69
2021/06/25 12:43:44;;;;;;;14.13;12.73;;;24.30;90.90;;;;;;5074585;28;20528;-70
2021/06/25 12:46:16;;;;;;;11.50;10.40;;;24.50;88.20;;;;;;5093781;28;20024;-69
2021/06/25 12:48:46;;;;;;;;;;;24.60;89.30;;;;;;5093870;28;20020;-70
2021/06/25 12:51:17;;;;;;;12.73;10.02;;;24.80;84.70;;;;;;5093154;28;19904;-69